Time;durP1;ratioP1;P1;durP2;ratioP2;P2;SDS_P1;SDS_P2;PMS_P1;PMS_P2;Temp;Humidity;BMP_temperature;BMP_pressure;BME280_temperature;BME280_humidity;BME280_pressure;Samples;Min_cycle;Max_cycle;Signal;HPM_P1;HPM_P2
2022/06/08 00:01:42;;;;;;;1.47;0.80;;;15.80;99.90;;;;;;5083585;28;20271;-58
2022/06/08 00:04:11;;;;;;;0.80;0.80;;;15.80;99.90;;;;;;5077894;28;20207;-60
2022/06/08 00:06:38;;;;;;;0.50;0.50;;;15.70;99.90;;;;;;5079721;28;20574;-60
2022/06/08 00:09:06;;;;;;;0.63;0.63;;;15.70;99.90;;;;;;5071159;28;20281;-60
2022/06/08 00:11:33;;;;;;;0.70;0.70;;;15.70;99.90;;;;;;5086010;28;20205;-60
2022/06/08 00:14:00;;;;;;;0.73;0.73;;;15.60;99.90;;;;;;5077069;28;20226;-59
2022/06/08 00:16:27;;;;;;;0.70;0.70;;;15.60;99.90;;;;;;5084267;28;20219;-60
2022/06/08 00:18:55;;;;;;;0.80;0.80;;;15.60;99.90;;;;;;5085210;28;20289;-62
2022/06/08 00:21:22;;;;;;;0.80;0.80;;;15.50;99.90;;;;;;5081447;28;20244;-60
2022/06/08 00:23:50;;;;;;;0.70;0.70;;;15.40;99.90;;;;;;5069095;28;20211;-60
2022/06/08 00:26:17;;;;;;;1.38;0.90;;;15.40;99.90;;;;;;5082232;28;20309;-60
2022/06/08 00:28:44;;;;;;;0.75;0.75;;;15.40;99.90;;;;;;5079802;28;20298;-59
2022/06/08 00:31:11;;;;;;;0.70;0.70;;;15.40;99.90;;;;;;5086852;28;20206;-60
2022/06/08 00:33:39;;;;;;;0.60;0.60;;;15.30;99.90;;;;;;5086694;28;21137;-60
2022/06/08 00:36:08;;;;;;;0.85;0.80;;;15.30;99.90;;;;;;5067173;28;20223;-60
2022/06/08 00:38:36;;;;;;;0.90;0.90;;;15.40;99.90;;;;;;5086891;28;20256;-59
2022/06/08 00:41:19;;;;;;;0.77;0.77;;;15.40;99.90;;;;;;5083219;28;20306;-59
2022/06/08 00:43:46;;;;;;;0.80;0.80;;;15.40;99.90;;;;;;5086310;28;20236;-61
2022/06/08 00:46:14;;;;;;;0.70;0.70;;;15.50;99.90;;;;;;5086571;28;20226;-60
2022/06/08 00:48:45;;;;;;;1.00;1.00;;;15.50;99.90;;;;;;5085703;28;20203;-60
2022/06/08 00:51:14;;;;;;;0.70;0.70;;;15.50;99.90;;;;;;5079301;28;20219;-60
2022/06/08 00:53:44;;;;;;;1.00;0.90;;;15.60;99.90;;;;;;5086316;28;20225;-59
2022/06/08 00:56:17;;;;;;;0.90;0.90;;;15.60;99.90;;;;;;5085473;28;20222;-60
2022/06/08 00:58:44;;;;;;;0.60;0.60;;;15.60;99.90;;;;;;5085833;28;20203;-60
2022/06/08 01:01:11;;;;;;;0.75;0.75;;;15.50;99.90;;;;;;5083687;28;20218;-61
2022/06/08 01:03:38;;;;;;;0.57;0.57;;;15.60;99.90;;;;;;5087007;28;20202;-60
2022/06/08 01:06:13;;;;;;;0.70;0.70;;;15.60;99.90;;;;;;5079666;28;20219;-60
2022/06/08 01:08:46;;;;;;;0.80;0.80;;;15.70;99.90;;;;;;5088367;28;20217;-59
2022/06/08 01:11:18;;;;;;;0.90;0.90;;;15.70;99.90;;;;;;5082782;28;20202;-62
2022/06/08 01:13:45;;;;;;;0.70;0.70;;;15.70;99.90;;;;;;5089046;28;20286;-61
2022/06/08 01:16:13;;;;;;;0.97;0.90;;;15.70;99.90;;;;;;5079262;28;20229;-58
2022/06/08 01:18:41;;;;;;;0.57;0.57;;;15.70;99.90;;;;;;5090050;28;20230;-61
2022/06/08 01:21:50;;;;;;;0.90;0.90;;;15.70;99.90;;;;;;5091710;28;20771;-61
2022/06/08 01:24:16;;;;;;;0.80;0.73;;;15.80;99.90;;;;;;5079090;28;20278;-61
2022/06/08 01:26:50;;;;;;;0.70;0.70;;;15.70;99.90;;;;;;5094263;28;20253;-60
2022/06/08 01:29:23;;;;;;;0.90;0.90;;;15.70;99.90;;;;;;5091959;28;20195;-59
2022/06/08 01:32:03;;;;;;;0.88;0.88;;;15.60;99.90;;;;;;5092546;28;20259;-59
2022/06/08 01:34:38;;;;;;;0.60;0.60;;;15.70;99.90;;;;;;5087998;28;20205;-60
2022/06/08 01:37:18;;;;;;;0.70;0.70;;;15.70;99.90;;;;;;5081471;28;20297;-61
2022/06/08 01:40:11;;;;;;;0.73;0.73;;;15.60;99.90;;;;;;5084886;28;20285;-60
2022/06/08 01:42:50;;;;;;;0.70;0.70;;;15.70;99.90;;;;;;5085442;28;20237;-59
2022/06/08 01:45:30;;;;;;;0.60;0.60;;;15.70;99.90;;;;;;5078129;28;20225;-61
2022/06/08 01:48:28;;;;;;;0.70;0.70;;;15.70;99.90;;;;;;5090136;28;20293;-61
2022/06/08 01:50:59;;;;;;;0.80;0.80;;;15.60;99.90;;;;;;5082469;28;20210;-60
2022/06/08 01:53:37;;;;;;;0.88;0.88;;;15.60;99.90;;;;;;5084883;28;20604;-60
2022/06/08 01:56:13;;;;;;;0.70;0.68;;;15.60;99.90;;;;;;5084409;28;20218;-60
2022/06/08 01:58:48;;;;;;;0.97;0.93;;;15.60;99.90;;;;;;5083851;28;20759;-60
2022/06/08 02:01:23;;;;;;;0.90;0.90;;;15.60;99.90;;;;;;5085686;28;20206;-60
2022/06/08 02:04:02;;;;;;;1.23;0.93;;;15.60;99.90;;;;;;5083907;28;20198;-60
2022/06/08 02:06:40;;;;;;;0.77;0.77;;;15.60;99.90;;;;;;5085354;28;20222;-60
2022/06/08 02:09:14;;;;;;;0.70;0.70;;;15.50;99.90;;;;;;5079260;28;20195;-60
2022/06/08 02:11:46;;;;;;;0.80;0.80;;;15.50;99.90;;;;;;5087771;28;20252;-60
2022/06/08 02:14:16;;;;;;;1.02;0.93;;;15.50;99.90;;;;;;5080695;28;20209;-59
2022/06/08 02:16:47;;;;;;;0.60;0.60;;;15.40;99.90;;;;;;5088423;28;20716;-62
2022/06/08 02:19:19;;;;;;;0.70;0.70;;;15.40;99.90;;;;;;5081325;28;20200;-60
2022/06/08 02:21:49;;;;;;;0.77;0.77;;;15.50;99.90;;;;;;5085449;28;20313;-62
2022/06/08 02:24:23;;;;;;;0.60;0.60;;;15.50;99.90;;;;;;5084194;28;20699;-60
2022/06/08 02:26:55;;;;;;;1.00;0.93;;;15.50;99.90;;;;;;5083157;28;20230;-59
2022/06/08 02:29:25;;;;;;;0.70;0.70;;;15.50;99.90;;;;;;5078792;28;20670;-60
2022/06/08 02:31:55;;;;;;;1.05;0.70;;;15.50;99.90;;;;;;5082651;28;20202;-60
2022/06/08 02:34:29;;;;;;;0.90;0.90;;;15.50;99.90;;;;;;5083803;28;20266;-60
2022/06/08 02:37:01;;;;;;;0.73;0.73;;;15.50;99.90;;;;;;5080197;28;20211;-62
2022/06/08 02:39:33;;;;;;;0.70;0.70;;;15.50;99.90;;;;;;5084326;28;20245;-60
2022/06/08 02:42:06;;;;;;;0.57;0.57;;;15.60;99.90;;;;;;5080103;28;20223;-61
2022/06/08 02:44:36;;;;;;;0.70;0.70;;;15.60;99.90;;;;;;5083806;28;20289;-61
2022/06/08 02:47:06;;;;;;;0.90;0.90;;;15.60;99.90;;;;;;5083549;28;20202;-62
2022/06/08 02:49:36;;;;;;;0.77;0.77;;;15.60;99.90;;;;;;5084099;28;20198;-60
2022/06/08 02:52:07;;;;;;;0.60;0.60;;;15.60;99.90;;;;;;5080961;28;20248;-61
2022/06/08 02:54:35;;;;;;;0.87;0.87;;;15.70;99.90;;;;;;5084971;28;20748;-59
2022/06/08 02:57:10;;;;;;;0.70;0.70;;;15.70;99.90;;;;;;5073837;28;20199;-60
2022/06/08 02:59:45;;;;;;;1.10;1.00;;;15.60;99.90;;;;;;5080117;28;20244;-60
2022/06/08 03:02:17;;;;;;;0.87;0.87;;;15.60;99.90;;;;;;5076931;28;20310;-60
2022/06/08 03:04:50;;;;;;;0.70;0.70;;;15.70;99.90;;;;;;5079589;28;20290;-60
2022/06/08 03:07:19;;;;;;;0.63;0.60;;;15.70;99.90;;;;;;5080207;28;20748;-59
2022/06/08 03:09:49;;;;;;;0.80;0.70;;;15.80;99.90;;;;;;5081141;28;20199;-61
2022/06/08 03:12:21;;;;;;;0.73;0.73;;;15.70;99.90;;;;;;5085428;28;20209;-60
2022/06/08 03:14:48;;;;;;;0.80;0.80;;;15.70;99.90;;;;;;5081731;28;20744;-59
2022/06/08 03:17:18;;;;;;;0.87;0.87;;;15.70;99.90;;;;;;5085836;28;20207;-61
2022/06/08 03:19:46;;;;;;;0.80;0.80;;;15.80;99.90;;;;;;5081224;28;20209;-61
2022/06/08 03:22:16;;;;;;;0.85;0.85;;;15.70;99.90;;;;;;5086982;28;20536;-61
2022/06/08 03:24:43;;;;;;;0.83;0.83;;;15.70;99.90;;;;;;5081224;28;20294;-61
2022/06/08 03:27:11;;;;;;;0.60;0.60;;;15.70;99.90;;;;;;5083889;28;20646;-61
2022/06/08 03:29:39;;;;;;;0.70;0.70;;;15.70;99.90;;;;;;5083202;28;20841;-60
2022/06/08 03:32:07;;;;;;;0.90;0.90;;;15.60;99.90;;;;;;5072751;28;20203;-59
2022/06/08 03:34:34;;;;;;;0.83;0.83;;;15.60;99.90;;;;;;5083083;28;20289;-60
2022/06/08 03:37:01;;;;;;;1.40;0.90;;;15.60;99.90;;;;;;5094630;22;20657;-61
2022/06/08 03:39:27;;;;;;;0.70;0.70;;;15.60;99.90;;;;;;5080391;28;20209;-61
2022/06/08 03:41:54;;;;;;;0.70;0.70;;;15.60;99.90;;;;;;5084779;28;20225;-63
2022/06/08 03:44:23;;;;;;;1.10;0.80;;;15.70;99.90;;;;;;5083838;28;20262;-63
2022/06/08 03:46:53;;;;;;;0.88;0.88;;;15.70;99.90;;;;;;5090836;28;20250;-62
2022/06/08 03:49:22;;;;;;;0.60;0.60;;;15.70;99.90;;;;;;5096226;28;20203;-62
2022/06/08 03:51:51;;;;;;;1.47;0.90;;;15.60;99.90;;;;;;5087966;28;20203;-63
2022/06/08 03:54:21;;;;;;;0.83;0.83;;;15.60;99.90;;;;;;5092453;28;20628;-62
2022/06/08 03:56:53;;;;;;;0.90;0.90;;;15.70;99.90;;;;;;5087160;28;20310;-63
2022/06/08 03:59:22;;;;;;;1.00;1.00;;;15.70;99.90;;;;;;5087565;28;20221;-63
2022/06/08 04:01:50;;;;;;;1.17;0.70;;;15.60;99.90;;;;;;5087259;28;20656;-63
2022/06/08 04:04:17;;;;;;;0.90;0.90;;;15.60;99.90;;;;;;5094863;28;20281;-62
2022/06/08 04:06:45;;;;;;;0.77;0.77;;;15.70;99.90;;;;;;5082515;28;20231;-60
2022/06/08 04:09:13;;;;;;;0.82;0.82;;;15.70;99.90;;;;;;5095101;28;20208;-63
2022/06/08 04:11:40;;;;;;;1.10;1.00;;;15.60;99.90;;;;;;5090504;28;20285;-61
2022/06/08 04:14:07;;;;;;;1.10;1.00;;;15.60;99.90;;;;;;5076640;28;20282;-62
2022/06/08 04:16:35;;;;;;;0.73;0.73;;;15.70;99.90;;;;;;5089442;28;20226;-60
2022/06/08 04:19:02;;;;;;;0.73;0.73;;;15.60;99.90;;;;;;5088182;28;20199;-61
2022/06/08 04:21:29;;;;;;;0.90;0.90;;;15.60;99.90;;;;;;5071594;28;20200;-61
2022/06/08 04:23:56;;;;;;;0.70;0.70;;;15.60;99.90;;;;;;5079200;28;20267;-62
2022/06/08 04:26:24;;;;;;;0.90;0.90;;;15.70;99.90;;;;;;5095601;28;20301;-61
2022/06/08 04:28:51;;;;;;;0.70;0.70;;;15.60;99.90;;;;;;5089836;28;20289;-62
2022/06/08 04:31:18;;;;;;;0.90;0.90;;;15.60;99.90;;;;;;5083599;28;20203;-62
2022/06/08 04:33:46;;;;;;;0.80;0.80;;;15.70;99.90;;;;;;5082081;28;20623;-63
2022/06/08 04:36:14;;;;;;;0.90;0.90;;;15.70;99.90;;;;;;5075687;28;20227;-62
2022/06/08 04:38:41;;;;;;;0.87;0.87;;;15.70;99.90;;;;;;5078002;28;20250;-61
2022/06/08 04:41:08;;;;;;;0.67;0.67;;;15.80;99.90;;;;;;5081157;28;20191;-61
2022/06/08 04:43:36;;;;;;;0.80;0.80;;;15.80;99.90;;;;;;5076934;28;20693;-62
2022/06/08 04:46:03;;;;;;;0.83;0.83;;;15.90;99.90;;;;;;5077230;28;20316;-62
2022/06/08 04:48:31;;;;;;;0.70;0.70;;;16.00;99.90;;;;;;5092029;28;20692;-64
2022/06/08 04:50:59;;;;;;;0.88;0.88;;;16.30;99.90;;;;;;5094187;28;20247;-65
2022/06/08 04:53:26;;;;;;;1.00;0.90;;;16.70;99.90;;;;;;5091493;28;20226;-68
2022/06/08 04:55:53;;;;;;;0.73;0.70;;;17.20;99.90;;;;;;5091240;28;20229;-66
2022/06/08 04:58:20;;;;;;;0.60;0.60;;;17.40;99.90;;;;;;5086618;28;20198;-66
2022/06/08 05:00:48;;;;;;;0.65;0.65;;;17.50;99.90;;;;;;5091279;28;20209;-66
2022/06/08 05:03:15;;;;;;;1.23;1.03;;;17.50;99.90;;;;;;5084032;28;20222;-64
2022/06/08 05:05:42;;;;;;;1.00;0.90;;;17.70;99.90;;;;;;5086072;28;20309;-64
2022/06/08 05:08:11;;;;;;;0.90;0.90;;;17.70;99.90;;;;;;5078016;28;20222;-63
2022/06/08 05:10:40;;;;;;;1.03;0.90;;;17.70;99.90;;;;;;5087060;28;20289;-64
2022/06/08 05:13:09;;;;;;;2.97;1.00;;;17.80;99.90;;;;;;5082820;28;20652;-65
2022/06/08 05:15:38;;;;;;;0.97;0.90;;;17.90;99.90;;;;;;5085869;28;20273;-64
2022/06/08 05:18:06;;;;;;;0.82;0.80;;;17.90;99.90;;;;;;5084776;28;20250;-65
2022/06/08 05:20:34;;;;;;;1.15;1.05;;;18.00;99.90;;;;;;5077156;28;20207;-66
2022/06/08 05:23:01;;;;;;;1.23;1.10;;;18.30;99.90;;;;;;5086015;28;20310;-65
2022/06/08 05:25:32;;;;;;;0.85;0.85;;;18.40;99.90;;;;;;5076437;28;20309;-66
2022/06/08 05:27:59;;;;;;;0.90;0.90;;;18.60;99.90;;;;;;5081251;28;20203;-65
2022/06/08 05:30:27;;;;;;;1.13;1.03;;;18.70;99.90;;;;;;5077702;28;20234;-65
2022/06/08 05:32:54;;;;;;;0.80;0.80;;;18.70;99.90;;;;;;5082869;28;20233;-66
2022/06/08 05:35:23;;;;;;;0.80;0.80;;;18.50;99.90;;;;;;5079802;28;20211;-67
2022/06/08 05:37:50;;;;;;;1.00;1.00;;;18.50;99.90;;;;;;5077705;28;20219;-65
2022/06/08 05:40:17;;;;;;;2.72;0.90;;;18.40;99.90;;;;;;5084860;28;20788;-68
2022/06/08 05:42:45;;;;;;;1.13;0.80;;;18.40;99.90;;;;;;5077855;28;20234;-67
2022/06/08 05:45:17;;;;;;;0.80;0.80;;;18.40;99.90;;;;;;5070855;28;20204;-64
2022/06/08 05:47:46;;;;;;;0.87;0.83;;;18.30;99.90;;;;;;5082542;28;20198;-65
2022/06/08 05:50:13;;;;;;;0.80;0.80;;;18.30;99.90;;;;;;5081283;28;20568;-67
2022/06/08 05:52:40;;;;;;;1.10;0.97;;;18.40;99.90;;;;;;5084166;28;20291;-65
2022/06/08 05:55:09;;;;;;;0.80;0.80;;;18.60;99.90;;;;;;5085116;28;20230;-64
2022/06/08 05:57:36;;;;;;;0.93;0.93;;;18.80;99.90;;;;;;5085367;28;20226;-69
2022/06/08 06:00:06;;;;;;;0.83;0.83;;;19.00;99.90;;;;;;5084748;28;20209;-67
2022/06/08 06:02:33;;;;;;;1.00;1.00;;;19.20;99.90;;;;;;5084990;28;20297;-65
2022/06/08 06:05:00;;;;;;;0.90;0.90;;;19.30;99.90;;;;;;5081823;28;20606;-64
2022/06/08 06:07:27;;;;;;;1.00;1.00;;;19.40;99.90;;;;;;5079074;28;20305;-65
2022/06/08 06:09:54;;;;;;;0.97;0.87;;;19.40;99.90;;;;;;5073640;28;20290;-65
2022/06/08 06:12:21;;;;;;;1.63;1.10;;;19.30;99.90;;;;;;5081287;28;20286;-66
2022/06/08 06:14:47;;;;;;;0.85;0.85;;;19.40;99.90;;;;;;5083840;28;20241;-63
2022/06/08 06:17:16;;;;;;;1.30;1.10;;;19.40;99.90;;;;;;5083717;28;20225;-63
2022/06/08 06:19:42;;;;;;;0.90;0.90;;;19.60;99.90;;;;;;5080261;28;20226;-64
2022/06/08 06:22:10;;;;;;;0.80;0.80;;;19.60;99.90;;;;;;5082091;28;20748;-64
2022/06/08 06:24:37;;;;;;;1.30;0.88;;;19.70;99.90;;;;;;5076872;28;20211;-65
2022/06/08 06:27:05;;;;;;;0.70;0.70;;;19.80;99.90;;;;;;5076886;28;20218;-65
2022/06/08 06:29:31;;;;;;;1.08;0.98;;;19.90;99.90;;;;;;5079424;28;20677;-64
2022/06/08 06:32:02;;;;;;;1.17;1.17;;;20.10;99.90;;;;;;5078365;28;20284;-63
2022/06/08 06:34:30;;;;;;;1.10;1.10;;;20.20;99.90;;;;;;5082674;28;20206;-65
2022/06/08 06:36:58;;;;;;;1.88;0.90;;;20.30;99.90;;;;;;5077620;28;20245;-63
2022/06/08 06:39:26;;;;;;;1.10;1.10;;;20.40;99.90;;;;;;5064931;28;20209;-63
2022/06/08 06:41:54;;;;;;;1.13;1.02;;;20.50;99.90;;;;;;5075742;28;20206;-63
2022/06/08 06:44:21;;;;;;;1.03;1.00;;;20.60;99.90;;;;;;5077780;28;20285;-64
2022/06/08 06:46:48;;;;;;;1.07;1.07;;;20.70;99.90;;;;;;5078785;28;20223;-63
2022/06/08 06:49:15;;;;;;;0.80;0.80;;;20.80;99.90;;;;;;5082779;28;20625;-63
2022/06/08 06:51:43;;;;;;;1.20;1.20;;;20.90;99.90;;;;;;5080866;28;20299;-63
2022/06/08 06:54:12;;;;;;;1.00;1.00;;;21.00;99.90;;;;;;5081199;28;20714;-63
2022/06/08 06:56:39;;;;;;;0.80;0.80;;;21.10;99.90;;;;;;5077414;28;20224;-66
2022/06/08 06:59:06;;;;;;;1.23;1.00;;;21.20;99.90;;;;;;5085201;28;20647;-64
2022/06/08 07:01:34;;;;;;;1.80;0.80;;;21.30;99.90;;;;;;5079095;28;20263;-64
2022/06/08 07:04:01;;;;;;;1.20;1.20;;;21.40;99.90;;;;;;5083711;28;20212;-63
2022/06/08 07:06:29;;;;;;;1.00;0.90;;;21.50;99.90;;;;;;5076970;28;20219;-64
2022/06/08 07:08:59;;;;;;;1.08;0.95;;;21.70;99.90;;;;;;5076168;28;20718;-64
2022/06/08 07:11:40;;;;;;;0.90;0.90;;;21.80;99.90;;;;;;5075988;28;20661;-63
2022/06/08 07:14:10;;;;;;;1.08;1.08;;;22.00;99.90;;;;;;5076195;28;20279;-65
2022/06/08 07:16:37;;;;;;;0.85;0.85;;;22.10;99.90;;;;;;5088900;28;20222;-62
2022/06/08 07:19:05;;;;;;;1.00;1.00;;;22.30;99.90;;;;;;5079544;28;20290;-61
2022/06/08 07:21:32;;;;;;;1.80;0.90;;;22.40;99.90;;;;;;5087464;28;20231;-63
2022/06/08 07:24:00;;;;;;;0.90;0.90;;;22.60;99.90;;;;;;5076190;28;20577;-63
2022/06/08 07:26:28;;;;;;;1.20;1.10;;;22.70;99.90;;;;;;5073755;28;20270;-64
2022/06/08 07:28:55;;;;;;;0.75;0.75;;;22.80;99.90;;;;;;5075598;28;20629;-64
2022/06/08 07:31:23;;;;;;;1.10;1.00;;;23.00;99.90;;;;;;5074366;28;20573;-64
2022/06/08 07:33:50;;;;;;;0.88;0.88;;;23.20;99.90;;;;;;5073340;28;20204;-64
2022/06/08 07:36:18;;;;;;;0.80;0.80;;;23.20;99.90;;;;;;5073854;28;20310;-64
2022/06/08 07:38:45;;;;;;;0.80;0.80;;;23.30;99.90;;;;;;5071864;28;20737;-64
2022/06/08 07:41:14;;;;;;;1.20;1.10;;;23.40;99.90;;;;;;5073616;28;20222;-64
2022/06/08 07:43:41;;;;;;;1.55;0.80;;;23.30;99.90;;;;;;5073421;28;20233;-65
2022/06/08 07:46:07;;;;;;;0.90;0.90;;;23.10;99.90;;;;;;5075820;28;20229;-66
2022/06/08 07:51:19;;;;;;;0.80;0.80;;;22.90;99.90;;;;;;5075004;28;20206;-63
2022/06/08 07:53:46;;;;;;;0.85;0.85;;;22.70;99.90;;;;;;5078995;28;20653;-64
2022/06/08 07:56:14;;;;;;;0.90;0.90;;;22.60;99.90;;;;;;5071917;28;20798;-64
2022/06/08 07:58:41;;;;;;;0.63;0.63;;;22.70;99.90;;;;;;5072402;28;20209;-65
2022/06/08 08:01:08;;;;;;;1.08;1.08;;;22.70;99.90;;;;;;5070891;28;20261;-64
2022/06/08 08:03:35;;;;;;;0.65;0.65;;;22.90;99.90;;;;;;5071320;28;20311;-64
2022/06/08 08:06:02;;;;;;;0.80;0.80;;;23.30;99.90;;;;;;5070259;28;20305;-63
2022/06/08 08:08:29;;;;;;;0.80;0.80;;;23.60;99.90;;;;;;5069776;28;20199;-64
2022/06/08 08:10:56;;;;;;;0.90;0.90;;;23.70;99.90;;;;;;5071573;28;20290;-63
2022/06/08 08:13:24;;;;;;;0.93;0.93;;;23.90;99.90;;;;;;5071353;28;20254;-63
2022/06/08 08:15:52;;;;;;;0.70;0.70;;;23.90;99.90;;;;;;5070623;28;20223;-63
2022/06/08 08:18:19;;;;;;;0.80;0.80;;;24.00;99.90;;;;;;5071666;28;20207;-64
2022/06/08 08:20:46;;;;;;;0.90;0.90;;;24.10;99.90;;;;;;5071292;28;20196;-62
2022/06/08 08:23:12;;;;;;;0.65;0.65;;;24.20;99.90;;;;;;5070991;28;20727;-65
2022/06/08 08:25:40;;;;;;;0.73;0.73;;;24.20;99.90;;;;;;5070316;28;20313;-64
2022/06/08 08:28:08;;;;;;;0.65;0.65;;;24.10;99.90;;;;;;5070895;28;20221;-63
2022/06/08 08:30:36;;;;;;;0.75;0.75;;;24.00;99.90;;;;;;5073273;28;20226;-63
2022/06/08 08:33:04;;;;;;;0.68;0.68;;;24.00;99.90;;;;;;5074274;28;20198;-64
2022/06/08 08:35:31;;;;;;;0.80;0.80;;;23.90;99.90;;;;;;5073783;28;20211;-64
2022/06/08 08:38:00;;;;;;;0.90;0.90;;;23.90;99.90;;;;;;5072293;28;20650;-64
2022/06/08 08:40:45;;;;;;;0.80;0.80;;;24.20;99.90;;;;;;5073926;28;20257;-65
2022/06/08 08:43:15;;;;;;;0.95;0.82;;;24.30;99.90;;;;;;5072367;28;20219;-64
2022/06/08 08:46:09;;;;;;;0.75;0.75;;;24.40;99.90;;;;;;5075571;28;20306;-64
2022/06/08 08:48:49;;;;;;;0.88;0.82;;;24.50;99.90;;;;;;5072660;28;20203;-64
2022/06/08 08:51:22;;;;;;;0.85;0.85;;;24.70;99.90;;;;;;5072616;28;20286;-64
2022/06/08 08:54:01;;;;;;;0.80;0.80;;;24.80;99.90;;;;;;5073072;28;20191;-62
2022/06/08 08:56:35;;;;;;;0.73;0.73;;;24.80;99.90;;;;;;5073242;28;20237;-65
2022/06/08 08:59:02;;;;;;;0.95;0.95;;;24.70;99.90;;;;;;5072144;28;20223;-66
2022/06/08 09:01:35;;;;;;;0.70;0.70;;;24.70;99.90;;;;;;5073168;28;20203;-64
2022/06/08 09:04:11;;;;;;;0.77;0.77;;;24.50;99.90;;;;;;5074366;28;20241;-65
2022/06/08 09:06:38;;;;;;;0.70;0.70;;;24.60;99.90;;;;;;5071957;28;20644;-65
2022/06/08 09:09:14;;;;;;;0.80;0.80;;;24.70;99.90;;;;;;5072140;28;20257;-64
2022/06/08 09:11:43;;;;;;;0.60;0.60;;;24.90;99.90;;;;;;5073278;28;20227;-63
2022/06/08 09:14:15;;;;;;;0.65;0.65;;;25.10;99.90;;;;;;5071301;28;20258;-65
2022/06/08 09:16:45;;;;;;;0.68;0.68;;;25.20;99.90;;;;;;5075344;28;20743;-63
2022/06/08 09:19:32;;;;;;;0.70;0.70;;;25.40;99.90;;;;;;5072549;28;20249;-63
2022/06/08 09:22:19;;;;;;;0.80;0.80;;;25.60;99.90;;;;;;5073691;28;20346;-65
2022/06/08 09:24:50;;;;;;;1.00;1.00;;;25.50;99.90;;;;;;5073322;28;20734;-65
2022/06/08 09:27:22;;;;;;;0.70;0.70;;;25.60;99.90;;;;;;5072486;28;20748;-64
2022/06/08 09:29:54;;;;;;;0.80;0.80;;;25.70;99.90;;;;;;5072034;28;20282;-65
2022/06/08 09:32:33;;;;;;;0.88;0.88;;;25.80;99.90;;;;;;5073818;28;20226;-65
2022/06/08 09:35:03;;;;;;;0.75;0.75;;;25.90;99.90;;;;;;5072684;28;20633;-64
2022/06/08 09:37:30;;;;;;;1.00;1.00;;;26.00;99.90;;;;;;5080410;28;20318;-65
2022/06/08 09:40:01;;;;;;;0.80;0.80;;;25.80;99.90;;;;;;5075650;28;20555;-65
2022/06/08 09:42:48;;;;;;;1.38;0.90;;;25.90;99.90;;;;;;5062368;28;20549;-64
2022/06/08 09:45:30;;;;;;;0.82;0.82;;;25.90;99.90;;;;;;5070916;28;20219;-63
2022/06/08 09:53:51;;;;;;;0.80;0.80;;;26.10;99.90;;;;;;5081720;28;20201;-64
2022/06/08 09:56:31;;;;;;;0.80;0.80;;;26.20;99.90;;;;;;5073279;28;20219;-66
2022/06/08 09:59:13;;;;;;;0.98;0.73;;;25.60;99.90;;;;;;5079082;28;20294;-64
2022/06/08 10:01:46;;;;;;;0.80;0.80;;;25.30;99.90;;;;;;5081136;28;20220;-64
2022/06/08 10:04:41;;;;;;;0.90;0.90;;;25.10;99.90;;;;;;5079161;28;20229;-64
2022/06/08 10:07:16;;;;;;;1.27;0.75;;;25.10;99.90;;;;;;5077187;28;20273;-65
2022/06/08 10:09:58;;;;;;;0.70;0.70;;;25.00;99.90;;;;;;5079624;28;20644;-64
2022/06/08 10:12:31;;;;;;;0.63;0.63;;;24.80;99.90;;;;;;5078281;28;20222;-66
2022/06/08 10:15:02;;;;;;;0.70;0.70;;;24.80;99.90;;;;;;5072483;28;20199;-64
2022/06/08 10:17:36;;;;;;;0.77;0.77;;;25.00;99.90;;;;;;5074579;28;20314;-64
2022/06/08 10:20:13;;;;;;;0.80;0.80;;;24.80;99.90;;;;;;5076304;28;20286;-65
2022/06/08 10:22:45;;;;;;;0.80;0.80;;;24.90;99.90;;;;;;5076284;28;20207;-65
2022/06/08 10:25:18;;;;;;;0.70;0.70;;;25.00;99.90;;;;;;5080186;28;20313;-63
2022/06/08 10:27:52;;;;;;;0.70;0.70;;;25.10;99.90;;;;;;5080865;28;20604;-66
2022/06/08 10:30:24;;;;;;;0.60;0.60;;;25.10;99.90;;;;;;5071782;28;20294;-65
2022/06/08 10:32:57;;;;;;;0.75;0.75;;;25.00;99.90;;;;;;5086521;28;20206;-63
2022/06/08 10:35:31;;;;;;;0.82;0.82;;;24.90;99.90;;;;;;5087483;28;20250;-64
2022/06/08 10:37:59;;;;;;;0.80;0.80;;;24.80;99.90;;;;;;5079574;28;20217;-66
2022/06/08 10:40:30;;;;;;;0.70;0.70;;;25.00;99.90;;;;;;5071377;28;20310;-65
2022/06/08 10:42:57;;;;;;;0.63;0.63;;;25.20;99.90;;;;;;5078873;28;20290;-66
2022/06/08 10:45:37;;;;;;;0.80;0.80;;;25.40;99.90;;;;;;5078943;28;20221;-65
2022/06/08 10:48:34;;;;;;;0.60;0.60;;;25.50;99.90;;;;;;5080162;28;20202;-63
2022/06/08 10:51:29;;;;;;;0.75;0.75;;;25.60;99.90;;;;;;5068817;28;20570;-63
2022/06/08 10:56:53;;;;;;;0.77;0.77;;;26.20;99.90;;;;;;5085153;28;20221;-64
2022/06/08 10:59:24;;;;;;;0.65;0.65;;;26.40;99.90;;;;;;5079275;28;20661;-63
2022/06/08 11:02:11;;;;;;;0.70;0.70;;;26.40;99.90;;;;;;5082597;28;20237;-64
2022/06/08 11:04:58;;;;;;;0.68;0.68;;;26.30;99.90;;;;;;5077194;28;20222;-63
2022/06/08 11:07:27;;;;;;;0.82;0.80;;;26.40;99.90;;;;;;5076324;28;20257;-63
2022/06/08 11:10:05;;;;;;;0.68;0.68;;;26.50;99.90;;;;;;5075045;28;20286;-65
2022/06/08 11:12:52;;;;;;;0.77;0.77;;;26.60;99.90;;;;;;5073006;28;20203;-63
2022/06/08 11:15:43;;;;;;;0.70;0.70;;;26.70;99.90;;;;;;5077270;28;20222;-63
2022/06/08 11:18:17;;;;;;;0.50;0.50;;;26.50;99.90;;;;;;5075875;28;20294;-63
2022/06/08 11:20:53;;;;;;;0.90;0.90;;;26.50;99.90;;;;;;5077735;28;20207;-63
2022/06/08 11:23:29;;;;;;;0.80;0.80;;;26.50;99.90;;;;;;5071849;28;20198;-63
2022/06/08 11:26:15;;;;;;;0.70;0.70;;;26.30;99.90;;;;;;5076435;28;20313;-63
2022/06/08 11:28:44;;;;;;;0.75;0.75;;;26.10;99.90;;;;;;5072243;28;20668;-63
2022/06/08 11:31:13;;;;;;;0.80;0.80;;;26.20;99.90;;;;;;5067259;28;20261;-63
2022/06/08 11:33:52;;;;;;;0.90;0.80;;;26.20;99.90;;;;;;5089797;22;20258;-66
2022/06/08 11:36:40;;;;;;;0.70;0.70;;;26.20;99.90;;;;;;5071068;28;20552;-67
2022/06/08 11:39:23;;;;;;;0.70;0.70;;;26.20;99.90;;;;;;5070167;28;20221;-65
2022/06/08 11:42:00;;;;;;;0.60;0.60;;;26.10;99.90;;;;;;5063330;28;20199;-68
2022/06/08 11:44:33;;;;;;;0.70;0.70;;;26.20;99.90;;;;;;5078930;28;20251;-65
2022/06/08 11:47:07;;;;;;;0.70;0.70;;;26.30;99.90;;;;;;5072432;28;20584;-67
2022/06/08 11:49:40;;;;;;;0.88;0.80;;;26.40;99.90;;;;;;5073578;28;20199;-67
2022/06/08 11:52:35;;;;;;;0.90;0.90;;;26.30;99.90;;;;;;5080202;28;20770;-65
2022/06/08 11:55:20;;;;;;;0.65;0.65;;;26.30;99.90;;;;;;5074189;28;20303;-66
2022/06/08 11:57:56;;;;;;;0.75;0.70;;;26.30;99.90;;;;;;5077158;28;20198;-67
2022/06/08 12:00:35;;;;;;;0.77;0.77;;;26.40;99.90;;;;;;5071666;28;20195;-65
2022/06/08 12:03:18;;;;;;;0.68;0.68;;;26.20;99.90;;;;;;5069493;28;20564;-66
2022/06/08 12:05:47;;;;;;;0.80;0.80;;;26.20;99.90;;;;;;5072821;28;20306;-69
2022/06/08 12:08:18;;;;;;;0.75;0.75;;;26.20;99.90;;;;;;5074155;28;20688;-67
2022/06/08 12:10:47;;;;;;;1.02;1.00;;;26.20;99.90;;;;;;5075145;28;20714;-67
2022/06/08 12:13:20;;;;;;;2.08;0.93;;;26.10;99.90;;;;;;5080846;28;20281;-65
2022/06/08 12:15:51;;;;;;;0.60;0.60;;;26.00;99.90;;;;;;5070096;28;20199;-66
2022/06/08 12:18:41;;;;;;;0.70;0.70;;;26.20;99.90;;;;;;5075224;28;20203;-66
2022/06/08 12:21:22;;;;;;;0.93;0.80;;;26.30;99.90;;;;;;5077449;28;20253;-65
2022/06/08 12:24:25;;;;;;;0.90;0.90;;;26.10;99.90;;;;;;5072459;28;20221;-66
2022/06/08 12:27:15;;;;;;;0.95;0.68;;;26.00;99.90;;;;;;5065090;28;20244;-66
2022/06/08 12:29:52;;;;;;;0.60;0.60;;;26.20;99.90;;;;;;5076901;28;20202;-66
2022/06/08 12:32:26;;;;;;;0.70;0.70;;;26.00;99.90;;;;;;5075607;28;20718;-65
2022/06/08 12:35:14;;;;;;;0.80;0.80;;;25.90;99.90;;;;;;5074905;28;20295;-65
2022/06/08 12:37:44;;;;;;;0.68;0.68;;;25.80;99.90;;;;;;5074888;28;20268;-67
2022/06/08 12:40:30;;;;;;;0.52;0.52;;;25.80;99.90;;;;;;5070578;28;20203;-66
2022/06/08 12:43:16;;;;;;;0.80;0.80;;;26.00;99.90;;;;;;5080573;28;20285;-65
2022/06/08 12:45:47;;;;;;;0.88;0.88;;;26.00;99.90;;;;;;5068865;28;20241;-65
2022/06/08 12:48:26;;;;;;;0.80;0.80;;;25.90;99.90;;;;;;5076212;28;20740;-70
2022/06/08 12:50:55;;;;;;;0.70;0.70;;;25.80;99.90;;;;;;5083159;28;20207;-65
2022/06/08 12:53:23;;;;;;;0.73;0.73;;;25.70;99.90;;;;;;5081784;28;20286;-67
2022/06/08 12:55:53;;;;;;;0.65;0.65;;;25.70;99.90;;;;;;5078294;28;20692;-65
2022/06/08 12:58:23;;;;;;;0.88;0.88;;;25.70;99.90;;;;;;5067273;28;20227;-69
2022/06/08 13:00:52;;;;;;;0.80;0.80;;;25.60;99.90;;;;;;5083230;28;20291;-66
2022/06/08 13:03:24;;;;;;;0.70;0.70;;;25.70;99.90;;;;;;5085558;28;20248;-66
2022/06/08 13:05:52;;;;;;;0.50;0.50;;;25.60;99.90;;;;;;5075548;28;20215;-65
2022/06/08 13:08:22;;;;;;;0.88;0.88;;;25.50;99.90;;;;;;5079466;28;20395;-69
2022/06/08 13:10:52;;;;;;;0.70;0.70;;;25.50;99.90;;;;;;5080667;28;20207;-66
2022/06/08 13:13:22;;;;;;;0.90;0.90;;;25.40;99.90;;;;;;5079274;28;20638;-65
2022/06/08 13:15:49;;;;;;;0.88;0.75;;;25.20;99.90;;;;;;5077215;28;20231;-66
2022/06/08 13:18:20;;;;;;;0.65;0.65;;;25.10;99.90;;;;;;5079871;28;20299;-67
2022/06/08 13:20:48;;;;;;;0.60;0.60;;;25.10;99.90;;;;;;5084566;28;20245;-66
2022/06/08 13:23:15;;;;;;;0.70;0.70;;;25.00;99.90;;;;;;5081516;28;20268;-67